KMGR/MGR METAR and TAF weather

Enter ICAO airport designator
Station Type Date Time Source
KMGR METAR 2021/05/13 05:10 UTC NOAA

KMGR 130510Z AUTO 03006KT 10SM OVC007 12/11 A3019 RMK AO2


Station Type Date Time Source
KMGR Decoded METAR 2021/05/13 05:10 UTC NOAA

Moultrie, Moultrie Municipal Airport, GA, United States (KMGR) 31-05-05N 083-48-11W
May 13, 2021 - 01:10 AM EDT / 2021.05.13 0510 UTC
Wind: from the NNE (030 degrees) at 7 MPH (6 KT):0
Visibility: 10 mile(s):0
Sky conditions: overcast
Temperature: 53 F (12 C)
Dew Point: 51 F (11 C)
Relative Humidity: 93%
Pressure (altimeter): 30.19 in. Hg (1022 hPa)
ob: KMGR 130510Z AUTO 03006KT 10SM OVC007 12/11 A3019 RMK AO2
cycle: 5

Station Type Date Time Source
KMGR TAF UTC NOAA

Error!

Example: see airport list